createdAt,value
2023-02-17T00:02:28.907Z,10.04
2023-02-17T00:06:32.808Z,10.06
2023-02-17T00:10:36.992Z,10.07
2023-02-17T00:14:40.216Z,10.07
2023-02-17T00:18:43.081Z,10.06
2023-02-17T00:22:46.336Z,10.06
2023-02-17T00:26:50.990Z,10.09
2023-02-17T00:30:53.828Z,10.07
2023-02-17T00:34:58.407Z,10.08
2023-02-17T00:39:01.352Z,10.11
2023-02-17T00:43:05.818Z,10.10
2023-02-17T00:47:08.940Z,10.10
2023-02-17T00:51:12.403Z,10.08
2023-02-17T00:55:15.269Z,10.12
2023-02-17T00:59:19.486Z,10.11
2023-02-17T01:03:22.363Z,10.11
2023-02-17T01:07:27.535Z,10.09
2023-02-17T01:11:32.828Z,10.10
2023-02-17T01:15:40.035Z,10.10
2023-02-17T01:19:42.805Z,10.09
2023-02-17T01:23:45.616Z,10.09
2023-02-17T01:27:48.428Z,10.10
2023-02-17T01:31:52.658Z,10.17
2023-02-17T01:35:55.469Z,10.18
2023-02-17T01:39:58.279Z,10.19
2023-02-17T01:44:10.444Z,10.20
2023-02-17T01:48:18.190Z,10.24
2023-02-17T01:52:25.729Z,10.26
2023-02-17T01:56:30.856Z,10.24
2023-02-17T02:00:36.870Z,10.23
2023-02-17T02:04:44.245Z,10.23
2023-02-17T02:08:53.065Z,10.25
2023-02-17T02:12:56.820Z,10.24
2023-02-17T02:17:09.849Z,10.26
2023-02-17T02:21:59.505Z,10.29
2023-02-17T02:26:33.517Z,10.32
2023-02-17T02:31:02.538Z,10.35
2023-02-17T02:35:10.466Z,10.34
2023-02-17T02:39:17.050Z,10.36
2023-02-17T02:43:20.242Z,10.39
2023-02-17T02:47:52.405Z,10.41
2023-02-17T02:52:10.491Z,10.41
2023-02-17T02:56:22.018Z,10.42
2023-02-17T03:00:33.977Z,10.43
2023-02-17T03:04:40.307Z,10.44
2023-02-17T03:08:53.639Z,10.47
2023-02-17T03:12:56.875Z,10.47
2023-02-17T03:16:59.661Z,10.48
2023-02-17T03:21:07.864Z,10.49
2023-02-17T03:25:12.284Z,10.50
2023-02-17T03:29:15.614Z,10.52
2023-02-17T03:33:18.597Z,10.50
2023-02-17T03:37:21.413Z,10.58
2023-02-17T03:41:26.479Z,10.54
2023-02-17T03:45:29.302Z,10.58
2023-02-17T03:49:32.343Z,10.59
2023-02-17T03:53:35.115Z,10.57
2023-02-17T03:57:39.344Z,10.58
2023-02-17T04:01:42.211Z,10.56
2023-02-17T04:05:45.715Z,10.54
2023-02-17T04:09:48.592Z,10.55
2023-02-17T04:13:52.859Z,10.54
2023-02-17T04:17:55.649Z,10.56
2023-02-17T04:21:58.490Z,10.56
2023-02-17T04:26:01.739Z,10.58
2023-02-17T04:30:07.342Z,10.54
2023-02-17T04:34:10.187Z,10.54
2023-02-17T04:38:13.329Z,10.53
2023-02-17T04:42:16.201Z,10.54
2023-02-17T04:46:20.438Z,10.48
2023-02-17T04:50:23.693Z,10.49
2023-02-17T04:54:26.571Z,10.48
2023-02-17T04:58:29.432Z,10.53
2023-02-17T05:02:33.746Z,10.51
2023-02-17T05:06:36.558Z,10.50
2023-02-17T05:10:40.605Z,10.50
2023-02-17T05:14:43.520Z,10.45
2023-02-17T05:18:47.922Z,10.43
2023-02-17T05:22:50.734Z,10.47
2023-02-17T05:26:53.545Z,10.46
2023-02-17T05:30:56.790Z,10.46
2023-02-17T05:35:01.066Z,10.45
2023-02-17T05:39:03.879Z,10.46
2023-02-17T05:43:06.704Z,10.45
2023-02-17T05:47:09.574Z,10.45
2023-02-17T05:51:17.169Z,10.47
2023-02-17T05:55:20.002Z,10.46
2023-02-17T05:59:22.839Z,10.47
2023-02-17T06:03:25.831Z,10.46
2023-02-17T06:07:29.997Z,10.45
2023-02-17T06:11:33.372Z,10.39
2023-02-17T06:15:36.226Z,10.31
2023-02-17T06:19:39.059Z,10.26
2023-02-17T06:23:43.193Z,10.24
2023-02-17T06:27:46.043Z,10.19
2023-02-17T06:31:48.939Z,10.15
2023-02-17T06:35:52.679Z,10.12
2023-02-17T06:39:56.812Z,10.12
2023-02-17T06:43:59.590Z,10.13
2023-02-17T06:48:02.366Z,10.11
2023-02-17T06:52:05.427Z,10.13
2023-02-17T06:56:09.833Z,10.13
2023-02-17T07:00:13.753Z,10.14
2023-02-17T07:04:16.523Z,10.19
2023-02-17T07:08:19.358Z,10.23
2023-02-17T07:12:23.558Z,10.20
2023-02-17T07:16:26.465Z,10.23
2023-02-17T07:20:29.292Z,10.25
2023-02-17T07:24:33.926Z,10.28
2023-02-17T07:28:39.335Z,10.32
2023-02-17T07:32:42.200Z,10.30
2023-02-17T07:36:45.099Z,10.31
2023-02-17T07:40:47.919Z,10.34
2023-02-17T07:44:52.060Z,10.41
2023-02-17T07:48:54.924Z,10.39
2023-02-17T07:52:57.761Z,10.45
2023-02-17T07:57:01.083Z,10.45
2023-02-17T08:01:08.085Z,10.44
2023-02-17T08:05:10.990Z,10.48
2023-02-17T08:09:31.405Z,10.50
2023-02-17T08:13:34.206Z,10.52
2023-02-17T08:17:38.594Z,10.55
2023-02-17T08:21:41.365Z,10.57
2023-02-17T08:25:44.186Z,10.57
2023-02-17T08:29:47.309Z,10.61
2023-02-17T08:33:51.858Z,10.62
2023-02-17T08:37:54.657Z,10.65
2023-02-17T08:41:57.508Z,10.71
2023-02-17T08:46:00.367Z,10.73
2023-02-17T08:50:05.946Z,10.77
2023-02-17T08:54:11.051Z,10.81
2023-02-17T08:58:13.931Z,10.85
2023-02-17T09:02:17.751Z,10.90
2023-02-17T09:06:22.440Z,10.95
2023-02-17T09:10:25.437Z,11.03
2023-02-17T09:14:28.630Z,11.06
2023-02-17T09:18:31.585Z,11.12
2023-02-17T09:22:35.949Z,11.18
2023-02-17T09:26:39.077Z,11.21
2023-02-17T09:30:42.356Z,11.30
2023-02-17T09:34:50.594Z,11.29
2023-02-17T09:38:55.094Z,11.32
2023-02-17T09:42:57.942Z,11.38
2023-02-17T09:47:06.560Z,11.42
2023-02-17T09:51:16.861Z,11.45
2023-02-17T09:55:26.440Z,11.49
2023-02-17T09:59:36.945Z,11.56
2023-02-17T10:03:44.258Z,11.59
2023-02-17T10:07:52.180Z,11.63
2023-02-17T10:12:03.124Z,11.69
2023-02-17T10:16:10.756Z,11.75
2023-02-17T10:20:16.664Z,11.79
2023-02-17T10:24:19.522Z,11.83
2023-02-17T10:28:36.490Z,11.81
2023-02-17T10:32:51.361Z,11.90
2023-02-17T10:37:00.164Z,11.97
2023-02-17T10:41:06.637Z,11.98
2023-02-17T10:45:16.497Z,12.07
2023-02-17T10:49:26.559Z,12.09
2023-02-17T10:53:32.974Z,12.12
2023-02-17T10:57:39.519Z,12.07
2023-02-17T11:01:44.922Z,12.16
2023-02-17T11:05:54.679Z,12.15
2023-02-17T11:10:01.706Z,12.19
2023-02-17T11:14:13.579Z,12.24
2023-02-17T11:18:22.730Z,12.26
2023-02-17T11:22:38.582Z,12.26
2023-02-17T11:26:41.579Z,12.29
2023-02-17T11:30:52.052Z,12.25
2023-02-17T11:35:04.723Z,12.26
2023-02-17T11:39:18.650Z,12.18
2023-02-17T11:43:21.507Z,12.18
2023-02-17T11:47:35.040Z,12.11
2023-02-17T11:51:52.644Z,12.08
2023-02-17T11:56:07.656Z,12.02
2023-02-17T12:00:20.671Z,12.07
2023-02-17T12:04:27.614Z,12.03
2023-02-17T12:08:46.361Z,12.04
2023-02-17T12:13:06.306Z,11.97
2023-02-17T12:17:18.106Z,11.91
2023-02-17T12:21:32.138Z,11.90
2023-02-17T12:25:38.878Z,11.91
2023-02-17T12:30:00.404Z,11.86
2023-02-17T12:34:14.117Z,11.81
2023-02-17T12:38:20.197Z,11.81
2023-02-17T12:42:28.463Z,11.80
2023-02-17T12:46:36.150Z,11.82
2023-02-17T12:50:43.634Z,11.84
2023-02-17T12:54:51.022Z,11.85
2023-02-17T12:58:59.918Z,11.84
2023-02-17T13:03:04.609Z,11.72
2023-02-17T13:07:36.478Z,11.68
2023-02-17T13:11:39.369Z,11.63
2023-02-17T13:15:45.647Z,11.61
2023-02-17T13:19:49.233Z,11.57
2023-02-17T13:24:00.549Z,11.55
2023-02-17T13:28:16.939Z,11.56
2023-02-17T13:32:28.847Z,11.56
2023-02-17T13:36:40.722Z,11.57
2023-02-17T13:40:44.701Z,11.54
2023-02-17T13:44:49.057Z,11.58
2023-02-17T13:49:03.278Z,11.59
2023-02-17T13:53:22.384Z,11.60
2023-02-17T13:57:28.735Z,11.63
2023-02-17T14:01:31.638Z,11.64
2023-02-17T14:05:43.481Z,11.63
2023-02-17T14:09:53.974Z,11.60
2023-02-17T14:13:58.760Z,11.57
2023-02-17T14:18:01.589Z,11.61
2023-02-17T14:22:06.797Z,11.55
2023-02-17T14:26:16.094Z,11.55
2023-02-17T14:30:30.242Z,11.54
2023-02-17T14:34:35.502Z,11.52
2023-02-17T14:38:42.421Z,11.49
2023-02-17T14:42:45.693Z,11.51
2023-02-17T14:46:48.606Z,11.52
2023-02-17T14:50:53.963Z,11.55
2023-02-17T14:55:00.482Z,11.52
2023-02-17T14:59:03.473Z,11.58
2023-02-17T15:03:06.305Z,11.57
2023-02-17T15:07:12.794Z,11.55
2023-02-17T15:11:21.148Z,11.56
2023-02-17T15:15:24.394Z,11.58
2023-02-17T15:19:27.228Z,11.59
2023-02-17T15:23:32.802Z,11.58
2023-02-17T15:27:36.951Z,11.58
2023-02-17T15:31:39.896Z,11.61
2023-02-17T15:35:43.267Z,11.59
2023-02-17T15:39:46.288Z,11.58
2023-02-17T15:43:51.170Z,11.58
2023-02-17T15:48:03.177Z,11.58
2023-02-17T15:52:06.241Z,11.60
2023-02-17T15:56:20.396Z,11.64
2023-02-17T16:00:26.928Z,11.65
2023-02-17T16:04:30.055Z,11.67
2023-02-17T16:08:32.875Z,11.66
2023-02-17T16:12:35.755Z,11.73
2023-02-17T16:16:39.997Z,11.70
2023-02-17T16:20:42.935Z,11.72
2023-02-17T16:24:45.761Z,11.73
2023-02-17T16:28:48.673Z,11.72
2023-02-17T16:32:52.897Z,11.72
2023-02-17T16:36:58.527Z,11.73
2023-02-17T16:41:01.310Z,11.76
2023-02-17T16:45:04.488Z,11.78
2023-02-17T16:49:20.341Z,11.77
2023-02-17T16:53:23.155Z,11.77
2023-02-17T16:57:26.374Z,11.79
2023-02-17T17:01:29.283Z,11.79
2023-02-17T17:05:34.230Z,11.82
2023-02-17T17:09:37.256Z,11.82
2023-02-17T17:13:40.041Z,11.80
2023-02-17T17:17:46.848Z,11.70
2023-02-17T17:21:51.288Z,11.67
2023-02-17T17:25:55.135Z,11.64
2023-02-17T17:29:58.845Z,11.61
2023-02-17T17:34:01.796Z,11.60
2023-02-17T17:38:06.509Z,11.59
2023-02-17T17:42:10.867Z,11.56
2023-02-17T17:46:16.538Z,11.55
2023-02-17T17:50:21.851Z,11.48
2023-02-17T17:54:25.995Z,11.41
2023-02-17T17:58:31.413Z,11.37
2023-02-17T18:02:34.249Z,11.34
2023-02-17T18:06:40.646Z,11.32
2023-02-17T18:10:45.541Z,11.29
2023-02-17T18:14:52.378Z,11.32
2023-02-17T18:18:56.092Z,11.28
2023-02-17T18:22:58.893Z,11.21
2023-02-17T18:27:03.034Z,11.17
2023-02-17T18:31:08.521Z,11.14
2023-02-17T18:35:11.454Z,11.07
2023-02-17T18:39:14.319Z,11.06
2023-02-17T18:43:18.534Z,10.98
2023-02-17T18:47:21.313Z,10.97
2023-02-17T18:51:26.734Z,10.94
2023-02-17T18:55:29.643Z,10.97
2023-02-17T18:59:34.675Z,10.97
2023-02-17T19:03:37.509Z,10.93
2023-02-17T19:07:40.570Z,10.94
2023-02-17T19:11:43.371Z,10.94
2023-02-17T19:15:47.525Z,10.92
2023-02-17T19:19:51.656Z,10.87
2023-02-17T19:23:55.039Z,10.88
2023-02-17T19:27:57.842Z,10.83
2023-02-17T19:32:03.643Z,10.77
2023-02-17T19:36:10.960Z,10.72
2023-02-17T19:40:13.766Z,10.71
2023-02-17T19:44:17.430Z,10.71
2023-02-17T19:48:24.168Z,10.70
2023-02-17T19:52:28.029Z,10.69
2023-02-17T19:56:35.273Z,10.69
2023-02-17T20:00:38.188Z,10.68
2023-02-17T20:04:42.605Z,10.67
2023-02-17T20:08:47.477Z,10.66
2023-02-17T20:12:50.406Z,10.62
2023-02-17T20:16:55.566Z,10.59
2023-02-17T20:20:59.760Z,10.58
2023-02-17T20:25:02.756Z,10.57
2023-02-17T20:29:05.720Z,10.54
2023-02-17T20:33:08.526Z,10.53
2023-02-17T20:37:13.068Z,10.54
2023-02-17T20:41:19.545Z,10.51
2023-02-17T20:45:22.703Z,10.51
2023-02-17T20:49:26.048Z,10.49
2023-02-17T20:53:30.647Z,10.48
2023-02-17T20:57:33.829Z,10.49
2023-02-17T21:01:37.347Z,10.45
2023-02-17T21:05:40.590Z,10.45
2023-02-17T21:09:44.792Z,10.46
2023-02-17T21:13:48.940Z,10.45
2023-02-17T21:17:51.852Z,10.47
2023-02-17T21:21:54.666Z,10.47
2023-02-17T21:25:58.866Z,10.46
2023-02-17T21:30:01.808Z,10.46
2023-02-17T21:34:05.649Z,10.44
2023-02-17T21:38:10.260Z,10.40
2023-02-17T21:42:14.636Z,10.38
2023-02-17T21:46:17.507Z,10.35
2023-02-17T21:50:21.326Z,10.30
2023-02-17T21:54:24.193Z,10.30
2023-02-17T21:58:29.025Z,10.27
2023-02-17T22:02:31.807Z,10.23
2023-02-17T22:06:36.641Z,10.22
2023-02-17T22:10:40.014Z,10.20
2023-02-17T22:14:44.186Z,10.15
2023-02-17T22:18:47.002Z,10.18
2023-02-17T22:22:49.871Z,10.12
2023-02-17T22:26:52.717Z,10.11
2023-02-17T22:30:58.449Z,10.08
2023-02-17T22:35:01.324Z,10.04
2023-02-17T22:39:05.514Z,10.01
2023-02-17T22:43:08.534Z,9.99
2023-02-17T22:47:12.771Z,9.94
2023-02-17T22:51:17.402Z,9.93
2023-02-17T22:55:20.250Z,9.88
2023-02-17T22:59:23.320Z,9.85
2023-02-17T23:03:27.575Z,9.80
2023-02-17T23:07:30.411Z,9.73
2023-02-17T23:11:54.649Z,9.71
2023-02-17T23:15:58.627Z,9.68
2023-02-17T23:20:02.861Z,9.67
2023-02-17T23:24:06.152Z,9.61
2023-02-17T23:28:10.871Z,9.57
2023-02-17T23:32:13.655Z,9.51
2023-02-17T23:36:17.886Z,9.48
2023-02-17T23:40:21.009Z,9.44
2023-02-17T23:44:23.816Z,9.46
2023-02-17T23:48:26.654Z,9.46
2023-02-17T23:52:30.813Z,9.48
2023-02-17T23:56:35.778Z,9.51
